sensor_id;sensor_type;location;lat;lon;timestamp;P1;durP1;ratioP1;P2;durP2;ratioP2
65924;SDS011;66010;52.084;5.412;2023-02-16T00:01:08;14.07;;;7.32;;
65924;SDS011;66010;52.084;5.412;2023-02-16T00:03:38;14.80;;;7.60;;
65924;SDS011;66010;52.084;5.412;2023-02-16T00:06:05;12.65;;;6.88;;
65924;SDS011;66010;52.084;5.412;2023-02-16T00:08:31;13.07;;;7.25;;
65924;SDS011;66010;52.084;5.412;2023-02-16T00:10:58;12.07;;;7.00;;
65924;SDS011;66010;52.084;5.412;2023-02-16T00:13:43;14.77;;;7.93;;
65924;SDS011;66010;52.084;5.412;2023-02-16T00:16:17;13.05;;;7.22;;
65924;SDS011;66010;52.084;5.412;2023-02-16T00:18:44;13.65;;;7.55;;
65924;SDS011;66010;52.084;5.412;2023-02-16T00:21:11;14.07;;;6.70;;
65924;SDS011;66010;52.084;5.412;2023-02-16T00:23:37;12.82;;;6.80;;
65924;SDS011;66010;52.084;5.412;2023-02-16T00:26:04;12.80;;;6.78;;
65924;SDS011;66010;52.084;5.412;2023-02-16T00:28:31;13.40;;;6.60;;
65924;SDS011;66010;52.084;5.412;2023-02-16T00:30:58;12.13;;;6.85;;
65924;SDS011;66010;52.084;5.412;2023-02-16T00:33:24;12.45;;;6.50;;
65924;SDS011;66010;52.084;5.412;2023-02-16T00:35:51;14.23;;;6.50;;
65924;SDS011;66010;52.084;5.412;2023-02-16T00:38:17;12.18;;;6.57;;
65924;SDS011;66010;52.084;5.412;2023-02-16T00:40:44;12.45;;;7.05;;
65924;SDS011;66010;52.084;5.412;2023-02-16T00:43:15;11.93;;;6.68;;
65924;SDS011;66010;52.084;5.412;2023-02-16T00:45:47;11.93;;;6.80;;
65924;SDS011;66010;52.084;5.412;2023-02-16T00:48:13;11.65;;;6.82;;
65924;SDS011;66010;52.084;5.412;2023-02-16T00:50:40;11.13;;;6.63;;
65924;SDS011;66010;52.084;5.412;2023-02-16T00:53:07;12.50;;;6.75;;
65924;SDS011;66010;52.084;5.412;2023-02-16T00:55:35;12.93;;;6.63;;
65924;SDS011;66010;52.084;5.412;2023-02-16T01:00:37;18.85;;;9.95;;
65924;SDS011;66010;52.084;5.412;2023-02-16T01:03:08;28.48;;;16.95;;
65924;SDS011;66010;52.084;5.412;2023-02-16T01:05:35;28.25;;;15.13;;
65924;SDS011;66010;52.084;5.412;2023-02-16T01:08:01;33.50;;;15.18;;
65924;SDS011;66010;52.084;5.412;2023-02-16T01:11:04;23.08;;;13.32;;
65924;SDS011;66010;52.084;5.412;2023-02-16T01:13:35;26.95;;;14.85;;
65924;SDS011;66010;52.084;5.412;2023-02-16T01:16:03;23.90;;;15.00;;
65924;SDS011;66010;52.084;5.412;2023-02-16T01:18:30;22.45;;;14.13;;
65924;SDS011;66010;52.084;5.412;2023-02-16T01:20:56;31.25;;;18.00;;
65924;SDS011;66010;52.084;5.412;2023-02-16T01:23:23;30.25;;;16.25;;
65924;SDS011;66010;52.084;5.412;2023-02-16T01:25:49;27.88;;;17.27;;
65924;SDS011;66010;52.084;5.412;2023-02-16T01:28:20;24.65;;;14.55;;
65924;SDS011;66010;52.084;5.412;2023-02-16T01:30:48;23.55;;;14.70;;
65924;SDS011;66010;52.084;5.412;2023-02-16T01:35:41;27.85;;;15.60;;
65924;SDS011;66010;52.084;5.412;2023-02-16T01:38:13;26.30;;;15.20;;
65924;SDS011;66010;52.084;5.412;2023-02-16T01:40:49;24.05;;;15.48;;
65924;SDS011;66010;52.084;5.412;2023-02-16T01:43:21;22.52;;;14.30;;
65924;SDS011;66010;52.084;5.412;2023-02-16T01:45:58;26.35;;;14.95;;
65924;SDS011;66010;52.084;5.412;2023-02-16T01:48:27;27.98;;;16.90;;
65924;SDS011;66010;52.084;5.412;2023-02-16T01:53:50;27.17;;;16.55;;
65924;SDS011;66010;52.084;5.412;2023-02-16T01:59:07;27.40;;;15.60;;
65924;SDS011;66010;52.084;5.412;2023-02-16T02:01:57;29.92;;;17.98;;
65924;SDS011;66010;52.084;5.412;2023-02-16T02:04:26;24.63;;;14.63;;
65924;SDS011;66010;52.084;5.412;2023-02-16T02:07:21;28.80;;;18.38;;
65924;SDS011;66010;52.084;5.412;2023-02-16T02:09:55;29.02;;;16.35;;
65924;SDS011;66010;52.084;5.412;2023-02-16T02:12:34;28.67;;;16.15;;
65924;SDS011;66010;52.084;5.412;2023-02-16T02:15:03;28.13;;;16.13;;
65924;SDS011;66010;52.084;5.412;2023-02-16T02:17:29;27.30;;;16.58;;
65924;SDS011;66010;52.084;5.412;2023-02-16T02:25:44;25.70;;;16.20;;
65924;SDS011;66010;52.084;5.412;2023-02-16T02:28:18;28.08;;;17.25;;
65924;SDS011;66010;52.084;5.412;2023-02-16T02:30:53;27.63;;;15.63;;
65924;SDS011;66010;52.084;5.412;2023-02-16T02:33:31;27.23;;;15.88;;
65924;SDS011;66010;52.084;5.412;2023-02-16T02:43:40;30.23;;;17.88;;
65924;SDS011;66010;52.084;5.412;2023-02-16T02:48:34;29.88;;;18.42;;
65924;SDS011;66010;52.084;5.412;2023-02-16T02:51:07;28.25;;;16.10;;
65924;SDS011;66010;52.084;5.412;2023-02-16T02:57:02;31.52;;;19.10;;
65924;SDS011;66010;52.084;5.412;2023-02-16T03:02:41;30.67;;;18.77;;
65924;SDS011;66010;52.084;5.412;2023-02-16T03:05:10;26.15;;;15.43;;
65924;SDS011;66010;52.084;5.412;2023-02-16T03:07:37;30.45;;;16.80;;
65924;SDS011;66010;52.084;5.412;2023-02-16T03:10:17;33.53;;;18.60;;
65924;SDS011;66010;52.084;5.412;2023-02-16T03:13:03;36.78;;;18.00;;
65924;SDS011;66010;52.084;5.412;2023-02-16T03:15:31;28.90;;;17.30;;
65924;SDS011;66010;52.084;5.412;2023-02-16T03:17:58;27.75;;;16.80;;
65924;SDS011;66010;52.084;5.412;2023-02-16T03:20:43;33.38;;;17.85;;
65924;SDS011;66010;52.084;5.412;2023-02-16T03:26:14;26.55;;;15.80;;
65924;SDS011;66010;52.084;5.412;2023-02-16T03:29:00;26.60;;;15.52;;
65924;SDS011;66010;52.084;5.412;2023-02-16T03:32:02;28.63;;;16.52;;
65924;SDS011;66010;52.084;5.412;2023-02-16T03:34:29;26.63;;;16.50;;
65924;SDS011;66010;52.084;5.412;2023-02-16T03:36:56;30.38;;;17.25;;
65924;SDS011;66010;52.084;5.412;2023-02-16T03:39:24;26.08;;;15.35;;
65924;SDS011;66010;52.084;5.412;2023-02-16T03:41:52;32.83;;;16.95;;
65924;SDS011;66010;52.084;5.412;2023-02-16T03:44:19;30.15;;;16.55;;
65924;SDS011;66010;52.084;5.412;2023-02-16T03:46:46;26.92;;;15.95;;
65924;SDS011;66010;52.084;5.412;2023-02-16T03:49:15;27.17;;;15.85;;
65924;SDS011;66010;52.084;5.412;2023-02-16T03:51:41;27.35;;;16.08;;
65924;SDS011;66010;52.084;5.412;2023-02-16T03:54:08;26.52;;;15.52;;
65924;SDS011;66010;52.084;5.412;2023-02-16T03:56:34;26.20;;;16.48;;
65924;SDS011;66010;52.084;5.412;2023-02-16T03:59:01;29.75;;;15.98;;
65924;SDS011;66010;52.084;5.412;2023-02-16T04:01:27;30.40;;;16.98;;
65924;SDS011;66010;52.084;5.412;2023-02-16T04:03:54;33.03;;;17.83;;
65924;SDS011;66010;52.084;5.412;2023-02-16T04:06:20;32.15;;;19.13;;
65924;SDS011;66010;52.084;5.412;2023-02-16T04:08:47;28.77;;;15.10;;
65924;SDS011;66010;52.084;5.412;2023-02-16T04:11:13;30.52;;;18.85;;
65924;SDS011;66010;52.084;5.412;2023-02-16T04:13:59;30.48;;;17.30;;
65924;SDS011;66010;52.084;5.412;2023-02-16T04:16:25;29.92;;;17.30;;
65924;SDS011;66010;52.084;5.412;2023-02-16T04:18:52;29.42;;;17.77;;
65924;SDS011;66010;52.084;5.412;2023-02-16T04:21:18;32.30;;;18.40;;
65924;SDS011;66010;52.084;5.412;2023-02-16T04:23:44;29.40;;;16.02;;
65924;SDS011;66010;52.084;5.412;2023-02-16T04:26:11;26.48;;;15.63;;
65924;SDS011;66010;52.084;5.412;2023-02-16T04:28:37;29.92;;;17.75;;
65924;SDS011;66010;52.084;5.412;2023-02-16T04:31:04;29.25;;;16.65;;
65924;SDS011;66010;52.084;5.412;2023-02-16T04:33:31;29.92;;;18.08;;
65924;SDS011;66010;52.084;5.412;2023-02-16T04:35:57;29.52;;;16.92;;
65924;SDS011;66010;52.084;5.412;2023-02-16T04:38:24;25.83;;;15.57;;
65924;SDS011;66010;52.084;5.412;2023-02-16T04:40:51;28.70;;;17.30;;
65924;SDS011;66010;52.084;5.412;2023-02-16T04:43:17;27.88;;;17.55;;
65924;SDS011;66010;52.084;5.412;2023-02-16T04:45:44;24.92;;;15.35;;
65924;SDS011;66010;52.084;5.412;2023-02-16T04:48:10;28.17;;;16.75;;
65924;SDS011;66010;52.084;5.412;2023-02-16T04:50:37;30.58;;;18.10;;
65924;SDS011;66010;52.084;5.412;2023-02-16T04:53:03;29.88;;;17.55;;
65924;SDS011;66010;52.084;5.412;2023-02-16T04:55:29;26.95;;;16.50;;
65924;SDS011;66010;52.084;5.412;2023-02-16T04:57:56;27.88;;;16.73;;
65924;SDS011;66010;52.084;5.412;2023-02-16T05:00:22;31.55;;;17.88;;
65924;SDS011;66010;52.084;5.412;2023-02-16T05:02:49;28.95;;;16.42;;
65924;SDS011;66010;52.084;5.412;2023-02-16T05:05:15;24.35;;;15.20;;
65924;SDS011;66010;52.084;5.412;2023-02-16T05:07:42;30.52;;;18.73;;
65924;SDS011;66010;52.084;5.412;2023-02-16T05:10:08;28.08;;;17.40;;
65924;SDS011;66010;52.084;5.412;2023-02-16T05:12:35;27.35;;;16.95;;
65924;SDS011;66010;52.084;5.412;2023-02-16T05:15:20;29.70;;;18.00;;
65924;SDS011;66010;52.084;5.412;2023-02-16T05:17:47;28.55;;;17.20;;
65924;SDS011;66010;52.084;5.412;2023-02-16T05:20:13;28.95;;;17.13;;
65924;SDS011;66010;52.084;5.412;2023-02-16T05:22:40;31.27;;;17.42;;
65924;SDS011;66010;52.084;5.412;2023-02-16T05:25:08;28.00;;;17.05;;
65924;SDS011;66010;52.084;5.412;2023-02-16T05:27:35;28.60;;;17.20;;
65924;SDS011;66010;52.084;5.412;2023-02-16T05:30:02;25.90;;;15.68;;
65924;SDS011;66010;52.084;5.412;2023-02-16T05:32:28;28.40;;;17.27;;
65924;SDS011;66010;52.084;5.412;2023-02-16T05:34:55;26.92;;;16.00;;
65924;SDS011;66010;52.084;5.412;2023-02-16T05:37:21;29.17;;;17.92;;
65924;SDS011;66010;52.084;5.412;2023-02-16T05:39:48;32.40;;;18.73;;
65924;SDS011;66010;52.084;5.412;2023-02-16T05:42:14;31.65;;;17.77;;
65924;SDS011;66010;52.084;5.412;2023-02-16T05:44:40;28.25;;;16.65;;
65924;SDS011;66010;52.084;5.412;2023-02-16T05:47:07;30.92;;;19.00;;
65924;SDS011;66010;52.084;5.412;2023-02-16T05:49:33;32.50;;;19.52;;
65924;SDS011;66010;52.084;5.412;2023-02-16T05:52:00;31.13;;;17.75;;
65924;SDS011;66010;52.084;5.412;2023-02-16T05:54:26;32.42;;;18.75;;
65924;SDS011;66010;52.084;5.412;2023-02-16T05:56:53;29.38;;;16.98;;
65924;SDS011;66010;52.084;5.412;2023-02-16T05:59:19;27.95;;;16.45;;
65924;SDS011;66010;52.084;5.412;2023-02-16T06:01:46;28.17;;;16.45;;
65924;SDS011;66010;52.084;5.412;2023-02-16T06:04:16;26.25;;;15.68;;
65924;SDS011;66010;52.084;5.412;2023-02-16T06:06:43;27.48;;;16.70;;
65924;SDS011;66010;52.084;5.412;2023-02-16T06:09:09;32.75;;;17.85;;
65924;SDS011;66010;52.084;5.412;2023-02-16T06:11:36;30.95;;;18.63;;
65924;SDS011;66010;52.084;5.412;2023-02-16T06:14:05;31.10;;;18.40;;
65924;SDS011;66010;52.084;5.412;2023-02-16T06:16:32;27.85;;;17.05;;
65924;SDS011;66010;52.084;5.412;2023-02-16T06:18:59;27.90;;;16.00;;
65924;SDS011;66010;52.084;5.412;2023-02-16T06:21:26;30.20;;;18.58;;
65924;SDS011;66010;52.084;5.412;2023-02-16T06:23:53;30.60;;;16.80;;
65924;SDS011;66010;52.084;5.412;2023-02-16T06:26:19;28.70;;;18.20;;
65924;SDS011;66010;52.084;5.412;2023-02-16T06:28:46;27.08;;;16.45;;
65924;SDS011;66010;52.084;5.412;2023-02-16T06:31:13;25.13;;;15.05;;
65924;SDS011;66010;52.084;5.412;2023-02-16T06:33:39;25.75;;;15.20;;
65924;SDS011;66010;52.084;5.412;2023-02-16T06:36:06;27.25;;;16.20;;
65924;SDS011;66010;52.084;5.412;2023-02-16T06:38:32;26.92;;;16.60;;
65924;SDS011;66010;52.084;5.412;2023-02-16T06:40:59;28.55;;;16.83;;
65924;SDS011;66010;52.084;5.412;2023-02-16T06:43:26;31.48;;;18.98;;
65924;SDS011;66010;52.084;5.412;2023-02-16T06:45:56;26.27;;;16.15;;
65924;SDS011;66010;52.084;5.412;2023-02-16T06:48:22;28.67;;;18.00;;
65924;SDS011;66010;52.084;5.412;2023-02-16T06:50:49;28.20;;;16.70;;
65924;SDS011;66010;52.084;5.412;2023-02-16T06:53:17;25.23;;;15.63;;
65924;SDS011;66010;52.084;5.412;2023-02-16T06:55:45;29.60;;;17.00;;
65924;SDS011;66010;52.084;5.412;2023-02-16T06:58:12;30.83;;;17.42;;
65924;SDS011;66010;52.084;5.412;2023-02-16T07:00:38;27.85;;;15.27;;
65924;SDS011;66010;52.084;5.412;2023-02-16T07:03:05;28.58;;;16.05;;
65924;SDS011;66010;52.084;5.412;2023-02-16T07:05:31;30.02;;;17.23;;
65924;SDS011;66010;52.084;5.412;2023-02-16T07:07:58;28.38;;;17.30;;
65924;SDS011;66010;52.084;5.412;2023-02-16T07:10:24;27.55;;;15.98;;
65924;SDS011;66010;52.084;5.412;2023-02-16T07:12:50;28.98;;;16.73;;
65924;SDS011;66010;52.084;5.412;2023-02-16T07:15:17;29.15;;;17.50;;
65924;SDS011;66010;52.084;5.412;2023-02-16T07:17:43;30.63;;;17.02;;
65924;SDS011;66010;52.084;5.412;2023-02-16T07:20:10;29.52;;;17.40;;
65924;SDS011;66010;52.084;5.412;2023-02-16T07:22:38;32.45;;;17.45;;
65924;SDS011;66010;52.084;5.412;2023-02-16T07:25:04;33.13;;;17.25;;
65924;SDS011;66010;52.084;5.412;2023-02-16T07:27:31;26.63;;;16.48;;
65924;SDS011;66010;52.084;5.412;2023-02-16T07:29:57;29.52;;;16.65;;
65924;SDS011;66010;52.084;5.412;2023-02-16T07:32:24;27.70;;;16.60;;
65924;SDS011;66010;52.084;5.412;2023-02-16T07:34:50;31.23;;;17.73;;
65924;SDS011;66010;52.084;5.412;2023-02-16T07:39:44;31.75;;;17.73;;
65924;SDS011;66010;52.084;5.412;2023-02-16T07:42:11;30.35;;;16.63;;
65924;SDS011;66010;52.084;5.412;2023-02-16T07:44:41;28.05;;;16.42;;
65924;SDS011;66010;52.084;5.412;2023-02-16T07:47:08;27.70;;;15.35;;
65924;SDS011;66010;52.084;5.412;2023-02-16T07:49:34;30.75;;;16.35;;
65924;SDS011;66010;52.084;5.412;2023-02-16T07:52:00;29.13;;;15.77;;
65924;SDS011;66010;52.084;5.412;2023-02-16T07:54:27;27.17;;;15.75;;
65924;SDS011;66010;52.084;5.412;2023-02-16T07:56:53;31.15;;;18.15;;
65924;SDS011;66010;52.084;5.412;2023-02-16T07:59:20;26.33;;;15.95;;
65924;SDS011;66010;52.084;5.412;2023-02-16T08:01:46;30.50;;;16.77;;
65924;SDS011;66010;52.084;5.412;2023-02-16T08:04:13;29.60;;;16.08;;
65924;SDS011;66010;52.084;5.412;2023-02-16T08:06:39;27.33;;;13.98;;
65924;SDS011;66010;52.084;5.412;2023-02-16T08:09:06;26.20;;;13.88;;
65924;SDS011;66010;52.084;5.412;2023-02-16T08:11:32;23.83;;;12.82;;
65924;SDS011;66010;52.084;5.412;2023-02-16T08:13:59;28.77;;;11.10;;
65924;SDS011;66010;52.084;5.412;2023-02-16T08:16:26;21.25;;;11.48;;
65924;SDS011;66010;52.084;5.412;2023-02-16T08:18:57;22.55;;;12.00;;
65924;SDS011;66010;52.084;5.412;2023-02-16T08:21:24;24.63;;;11.65;;
65924;SDS011;66010;52.084;5.412;2023-02-16T08:23:52;21.13;;;11.45;;
65924;SDS011;66010;52.084;5.412;2023-02-16T08:26:22;20.48;;;11.57;;
65924;SDS011;66010;52.084;5.412;2023-02-16T08:28:48;18.23;;;10.82;;
65924;SDS011;66010;52.084;5.412;2023-02-16T08:31:16;16.88;;;10.48;;
65924;SDS011;66010;52.084;5.412;2023-02-16T08:33:44;17.45;;;10.15;;
65924;SDS011;66010;52.084;5.412;2023-02-16T08:36:30;15.75;;;10.25;;
65924;SDS011;66010;52.084;5.412;2023-02-16T08:39:00;17.05;;;9.85;;
65924;SDS011;66010;52.084;5.412;2023-02-16T08:41:30;15.35;;;9.85;;
65924;SDS011;66010;52.084;5.412;2023-02-16T08:43:57;13.80;;;9.55;;
65924;SDS011;66010;52.084;5.412;2023-02-16T08:46:26;13.75;;;8.85;;
65924;SDS011;66010;52.084;5.412;2023-02-16T08:48:55;14.02;;;9.05;;
65924;SDS011;66010;52.084;5.412;2023-02-16T08:51:23;15.07;;;9.20;;
65924;SDS011;66010;52.084;5.412;2023-02-16T08:53:50;13.50;;;8.20;;
65924;SDS011;66010;52.084;5.412;2023-02-16T08:56:17;13.52;;;8.93;;
65924;SDS011;66010;52.084;5.412;2023-02-16T08:58:45;14.02;;;9.20;;
65924;SDS011;66010;52.084;5.412;2023-02-16T09:01:12;15.07;;;8.68;;
65924;SDS011;66010;52.084;5.412;2023-02-16T09:03:41;12.25;;;8.05;;
65924;SDS011;66010;52.084;5.412;2023-02-16T09:06:08;13.32;;;8.80;;
65924;SDS011;66010;52.084;5.412;2023-02-16T09:08:35;15.30;;;8.50;;
65924;SDS011;66010;52.084;5.412;2023-02-16T09:11:06;13.07;;;8.73;;
65924;SDS011;66010;52.084;5.412;2023-02-16T09:13:33;12.95;;;7.82;;
65924;SDS011;66010;52.084;5.412;2023-02-16T09:16:01;11.88;;;7.90;;
65924;SDS011;66010;52.084;5.412;2023-02-16T09:18:29;12.55;;;8.02;;
65924;SDS011;66010;52.084;5.412;2023-02-16T09:21:02;12.82;;;7.53;;
65924;SDS011;66010;52.084;5.412;2023-02-16T09:23:29;11.77;;;7.35;;
65924;SDS011;66010;52.084;5.412;2023-02-16T09:25:56;11.95;;;7.50;;
65924;SDS011;66010;52.084;5.412;2023-02-16T09:28:24;11.88;;;7.28;;
65924;SDS011;66010;52.084;5.412;2023-02-16T09:30:50;12.15;;;7.45;;
65924;SDS011;66010;52.084;5.412;2023-02-16T09:33:19;11.65;;;7.50;;
65924;SDS011;66010;52.084;5.412;2023-02-16T09:35:46;12.18;;;7.40;;
65924;SDS011;66010;52.084;5.412;2023-02-16T09:38:13;11.20;;;6.82;;
65924;SDS011;66010;52.084;5.412;2023-02-16T09:40:42;10.80;;;7.05;;
65924;SDS011;66010;52.084;5.412;2023-02-16T09:43:26;11.07;;;6.82;;
65924;SDS011;66010;52.084;5.412;2023-02-16T09:45:54;11.40;;;7.40;;
65924;SDS011;66010;52.084;5.412;2023-02-16T09:48:36;10.85;;;7.22;;
65924;SDS011;66010;52.084;5.412;2023-02-16T09:51:04;10.32;;;6.85;;
65924;SDS011;66010;52.084;5.412;2023-02-16T09:53:38;11.10;;;7.03;;
65924;SDS011;66010;52.084;5.412;2023-02-16T09:56:19;10.10;;;6.68;;
65924;SDS011;66010;52.084;5.412;2023-02-16T09:58:53;11.15;;;6.63;;
65924;SDS011;66010;52.084;5.412;2023-02-16T10:09:23;10.55;;;6.65;;
65924;SDS011;66010;52.084;5.412;2023-02-16T10:11:57;12.70;;;7.03;;
65924;SDS011;66010;52.084;5.412;2023-02-16T10:14:37;12.65;;;6.93;;
65924;SDS011;66010;52.084;5.412;2023-02-16T10:17:21;11.32;;;6.53;;
65924;SDS011;66010;52.084;5.412;2023-02-16T10:25:10;11.93;;;6.65;;
65924;SDS011;66010;52.084;5.412;2023-02-16T10:27:39;10.07;;;6.80;;
65924;SDS011;66010;52.084;5.412;2023-02-16T10:32:38;11.60;;;7.25;;
65924;SDS011;66010;52.084;5.412;2023-02-16T10:35:11;11.40;;;7.07;;
65924;SDS011;66010;52.084;5.412;2023-02-16T10:40:13;10.25;;;6.57;;
65924;SDS011;66010;52.084;5.412;2023-02-16T10:42:43;11.45;;;6.90;;
65924;SDS011;66010;52.084;5.412;2023-02-16T10:47:41;10.45;;;6.85;;
65924;SDS011;66010;52.084;5.412;2023-02-16T10:52:41;11.32;;;6.70;;
65924;SDS011;66010;52.084;5.412;2023-02-16T10:55:10;11.52;;;7.05;;
65924;SDS011;66010;52.084;5.412;2023-02-16T10:57:37;12.15;;;7.32;;
65924;SDS011;66010;52.084;5.412;2023-02-16T11:00:05;13.63;;;7.40;;
65924;SDS011;66010;52.084;5.412;2023-02-16T11:05:02;20.40;;;7.85;;
65924;SDS011;66010;52.084;5.412;2023-02-16T11:07:52;12.43;;;6.78;;
65924;SDS011;66010;52.084;5.412;2023-02-16T11:10:20;9.95;;;6.88;;
65924;SDS011;66010;52.084;5.412;2023-02-16T11:12:53;11.00;;;6.80;;
65924;SDS011;66010;52.084;5.412;2023-02-16T11:15:21;10.75;;;6.72;;
65924;SDS011;66010;52.084;5.412;2023-02-16T11:17:52;11.18;;;6.68;;
65924;SDS011;66010;52.084;5.412;2023-02-16T11:20:50;10.63;;;6.75;;
65924;SDS011;66010;52.084;5.412;2023-02-16T11:23:13;11.18;;;6.95;;
65924;SDS011;66010;52.084;5.412;2023-02-16T11:25:40;10.98;;;6.95;;
65924;SDS011;66010;52.084;5.412;2023-02-16T11:30:40;10.23;;;6.28;;
65924;SDS011;66010;52.084;5.412;2023-02-16T11:33:19;10.60;;;6.82;;
65924;SDS011;66010;52.084;5.412;2023-02-16T11:35:45;11.35;;;7.28;;
65924;SDS011;66010;52.084;5.412;2023-02-16T11:40:51;11.15;;;7.00;;
65924;SDS011;66010;52.084;5.412;2023-02-16T11:43:18;11.07;;;6.80;;
65924;SDS011;66010;52.084;5.412;2023-02-16T11:48:28;10.40;;;6.95;;
65924;SDS011;66010;52.084;5.412;2023-02-16T11:50:57;12.52;;;7.55;;
65924;SDS011;66010;52.084;5.412;2023-02-16T11:53:26;11.82;;;7.32;;
65924;SDS011;66010;52.084;5.412;2023-02-16T11:56:08;11.68;;;7.35;;
65924;SDS011;66010;52.084;5.412;2023-02-16T11:58:35;11.57;;;7.45;;
65924;SDS011;66010;52.084;5.412;2023-02-16T12:06:06;13.63;;;8.30;;
65924;SDS011;66010;52.084;5.412;2023-02-16T12:11:08;14.18;;;8.73;;
65924;SDS011;66010;52.084;5.412;2023-02-16T12:16:24;15.57;;;9.10;;
65924;SDS011;66010;52.084;5.412;2023-02-16T12:21:30;12.50;;;8.52;;
65924;SDS011;66010;52.084;5.412;2023-02-16T12:31:33;26.98;;;8.50;;
65924;SDS011;66010;52.084;5.412;2023-02-16T12:44:34;15.85;;;10.48;;
65924;SDS011;66010;52.084;5.412;2023-02-16T12:47:04;16.80;;;9.65;;
65924;SDS011;66010;52.084;5.412;2023-02-16T12:49:55;13.13;;;8.45;;
65924;SDS011;66010;52.084;5.412;2023-02-16T12:57:31;14.52;;;8.77;;
65924;SDS011;66010;52.084;5.412;2023-02-16T13:02:52;15.13;;;10.07;;
65924;SDS011;66010;52.084;5.412;2023-02-16T13:05:29;15.90;;;9.60;;
65924;SDS011;66010;52.084;5.412;2023-02-16T13:10:57;16.08;;;11.00;;
65924;SDS011;66010;52.084;5.412;2023-02-16T13:13:30;17.05;;;10.50;;
65924;SDS011;66010;52.084;5.412;2023-02-16T13:18:31;14.98;;;8.85;;
65924;SDS011;66010;52.084;5.412;2023-02-16T13:21:00;15.35;;;8.10;;
65924;SDS011;66010;52.084;5.412;2023-02-16T13:23:36;17.38;;;7.57;;
65924;SDS011;66010;52.084;5.412;2023-02-16T13:26:16;12.88;;;7.63;;
65924;SDS011;66010;52.084;5.412;2023-02-16T13:34:19;13.05;;;8.07;;
65924;SDS011;66010;52.084;5.412;2023-02-16T13:41:54;12.13;;;7.90;;
65924;SDS011;66010;52.084;5.412;2023-02-16T13:44:23;13.95;;;9.05;;
65924;SDS011;66010;52.084;5.412;2023-02-16T13:46:51;14.35;;;8.88;;
65924;SDS011;66010;52.084;5.412;2023-02-16T13:49:36;14.85;;;8.80;;
65924;SDS011;66010;52.084;5.412;2023-02-16T13:52:05;16.17;;;7.38;;
65924;SDS011;66010;52.084;5.412;2023-02-16T13:54:35;16.38;;;8.48;;
65924;SDS011;66010;52.084;5.412;2023-02-16T13:57:02;14.38;;;8.15;;
65924;SDS011;66010;52.084;5.412;2023-02-16T14:02:02;13.07;;;7.93;;
65924;SDS011;66010;52.084;5.412;2023-02-16T14:09:29;12.63;;;7.70;;
65924;SDS011;66010;52.084;5.412;2023-02-16T14:11:59;12.23;;;7.40;;
65924;SDS011;66010;52.084;5.412;2023-02-16T14:14:34;12.75;;;7.43;;
65924;SDS011;66010;52.084;5.412;2023-02-16T14:17:23;11.70;;;7.07;;
65924;SDS011;66010;52.084;5.412;2023-02-16T14:22:18;12.27;;;7.22;;
65924;SDS011;66010;52.084;5.412;2023-02-16T14:24:50;13.52;;;7.25;;
65924;SDS011;66010;52.084;5.412;2023-02-16T14:27:38;12.00;;;7.70;;
65924;SDS011;66010;52.084;5.412;2023-02-16T14:30:04;11.85;;;7.28;;
65924;SDS011;66010;52.084;5.412;2023-02-16T14:32:37;11.85;;;6.93;;
65924;SDS011;66010;52.084;5.412;2023-02-16T14:35:05;11.27;;;7.30;;
65924;SDS011;66010;52.084;5.412;2023-02-16T14:37:40;12.23;;;7.15;;
65924;SDS011;66010;52.084;5.412;2023-02-16T14:40:10;12.50;;;7.68;;
65924;SDS011;66010;52.084;5.412;2023-02-16T14:42:41;11.95;;;7.43;;
65924;SDS011;66010;52.084;5.412;2023-02-16T15:00:33;17.42;;;10.50;;
65924;SDS011;66010;52.084;5.412;2023-02-16T15:05:45;15.40;;;9.52;;
65924;SDS011;66010;52.084;5.412;2023-02-16T15:08:18;15.07;;;9.15;;
65924;SDS011;66010;52.084;5.412;2023-02-16T15:13:18;15.43;;;9.80;;
65924;SDS011;66010;52.084;5.412;2023-02-16T15:15:45;15.50;;;8.93;;
65924;SDS011;66010;52.084;5.412;2023-02-16T15:18:20;15.35;;;8.82;;
65924;SDS011;66010;52.084;5.412;2023-02-16T15:20:48;14.75;;;8.18;;
65924;SDS011;66010;52.084;5.412;2023-02-16T15:23:19;14.55;;;8.68;;
65924;SDS011;66010;52.084;5.412;2023-02-16T15:28:23;14.68;;;8.38;;
65924;SDS011;66010;52.084;5.412;2023-02-16T15:31:03;12.65;;;7.97;;
65924;SDS011;66010;52.084;5.412;2023-02-16T15:33:34;13.00;;;8.25;;
65924;SDS011;66010;52.084;5.412;2023-02-16T15:36:03;13.07;;;8.23;;
65924;SDS011;66010;52.084;5.412;2023-02-16T15:38:31;16.23;;;8.45;;
65924;SDS011;66010;52.084;5.412;2023-02-16T15:40:59;13.20;;;7.47;;
65924;SDS011;66010;52.084;5.412;2023-02-16T15:46:00;12.90;;;8.15;;
65924;SDS011;66010;52.084;5.412;2023-02-16T15:48:33;13.60;;;7.75;;
65924;SDS011;66010;52.084;5.412;2023-02-16T15:51:07;14.23;;;7.80;;
65924;SDS011;66010;52.084;5.412;2023-02-16T15:53:38;14.40;;;8.15;;
65924;SDS011;66010;52.084;5.412;2023-02-16T15:59:25;14.20;;;8.10;;
65924;SDS011;66010;52.084;5.412;2023-02-16T16:02:36;13.35;;;7.70;;
65924;SDS011;66010;52.084;5.412;2023-02-16T16:05:05;14.25;;;7.65;;
65924;SDS011;66010;52.084;5.412;2023-02-16T16:07:31;13.00;;;7.30;;
65924;SDS011;66010;52.084;5.412;2023-02-16T16:10:01;13.40;;;7.78;;
65924;SDS011;66010;52.084;5.412;2023-02-16T16:14:55;12.80;;;7.38;;
65924;SDS011;66010;52.084;5.412;2023-02-16T16:17:26;13.45;;;7.55;;
65924;SDS011;66010;52.084;5.412;2023-02-16T16:19:55;11.85;;;7.28;;
65924;SDS011;66010;52.084;5.412;2023-02-16T16:22:30;13.15;;;7.00;;
65924;SDS011;66010;52.084;5.412;2023-02-16T16:24:58;10.95;;;6.95;;
65924;SDS011;66010;52.084;5.412;2023-02-16T16:27:32;11.63;;;7.03;;
65924;SDS011;66010;52.084;5.412;2023-02-16T16:30:12;11.68;;;6.75;;
65924;SDS011;66010;52.084;5.412;2023-02-16T16:32:59;11.48;;;6.63;;
65924;SDS011;66010;52.084;5.412;2023-02-16T16:38:02;13.52;;;7.28;;
65924;SDS011;66010;52.084;5.412;2023-02-16T16:40:33;11.95;;;7.05;;
65924;SDS011;66010;52.084;5.412;2023-02-16T16:45:36;11.15;;;6.63;;
65924;SDS011;66010;52.084;5.412;2023-02-16T16:50:39;12.35;;;7.13;;
65924;SDS011;66010;52.084;5.412;2023-02-16T16:53:33;10.68;;;6.70;;
65924;SDS011;66010;52.084;5.412;2023-02-16T16:55:52;11.65;;;7.00;;
65924;SDS011;66010;52.084;5.412;2023-02-16T16:58:18;13.98;;;7.35;;
65924;SDS011;66010;52.084;5.412;2023-02-16T17:00:45;11.60;;;6.68;;
65924;SDS011;66010;52.084;5.412;2023-02-16T17:03:13;11.60;;;6.95;;
65924;SDS011;66010;52.084;5.412;2023-02-16T17:05:39;11.43;;;7.43;;
65924;SDS011;66010;52.084;5.412;2023-02-16T17:08:07;11.93;;;6.72;;
65924;SDS011;66010;52.084;5.412;2023-02-16T17:10:34;12.38;;;7.13;;
65924;SDS011;66010;52.084;5.412;2023-02-16T17:15:30;11.00;;;6.50;;
65924;SDS011;66010;52.084;5.412;2023-02-16T17:17:57;11.52;;;7.03;;
65924;SDS011;66010;52.084;5.412;2023-02-16T17:20:23;11.88;;;7.43;;
65924;SDS011;66010;52.084;5.412;2023-02-16T17:22:50;11.63;;;7.35;;
65924;SDS011;66010;52.084;5.412;2023-02-16T17:25:17;12.45;;;7.72;;
65924;SDS011;66010;52.084;5.412;2023-02-16T17:27:43;13.45;;;7.50;;
65924;SDS011;66010;52.084;5.412;2023-02-16T17:30:10;14.80;;;8.27;;
65924;SDS011;66010;52.084;5.412;2023-02-16T17:32:37;15.70;;;9.77;;
65924;SDS011;66010;52.084;5.412;2023-02-16T17:35:03;16.00;;;11.23;;
65924;SDS011;66010;52.084;5.412;2023-02-16T17:37:33;16.33;;;11.32;;
65924;SDS011;66010;52.084;5.412;2023-02-16T17:40:01;16.52;;;11.30;;
65924;SDS011;66010;52.084;5.412;2023-02-16T17:42:28;17.35;;;11.15;;